Orbital elements of COSMOS 970 DEB
| Launched | 20 December 1977 |
| Flight ended | – |
| Launch site | Tyuratam Missile and Space Center, Kazakhstan (Also known as Baikonur Cosmodrome) |
| Owner | Commonwealth of Independent States (former USSR) |
| NORAD ID | 12861 |
| Date fetched |
Epoch osculation |
Inc. [°] |
Ecc. | RA asc node [hr] |
Arg Peri. [°] |
Mean anom [°] |
Mean motion [rev/day] |
Abs. mag |
| Date fetched |
Epoch osculation |
Inc. [°] |
Ecc. | RA asc node [hr] |
Arg Peri. [°] |
Mean anom [°] |
Mean motion [rev/day] |
Abs. mag |
| 2026 May 03 17:57 | 2026 Apr 30 01:47:16 | 65.7754 | 0.00978 | 0.0832 | 20.3848 | 127.0393 | 13.40530 | – |
| 2026 May 02 17:57 | 2026 Apr 30 01:47:16 | 65.7754 | 0.00978 | 0.0832 | 20.3848 | 127.0393 | 13.40530 | – |
| 2026 May 01 17:56 | 2026 Apr 30 01:47:16 | 65.7754 | 0.00978 | 0.0832 | 20.3848 | 127.0393 | 13.40530 | – |
| 2026 Apr 30 17:56 | 2026 Apr 30 01:47:16 | 65.7754 | 0.00978 | 0.0832 | 20.3848 | 127.0393 | 13.40530 | – |
| 2026 Apr 29 17:57 | 2026 Apr 24 00:34:49 | 65.7757 | 0.00973 | 1.0247 | 23.0885 | 127.0393 | 13.40530 | – |
| 2026 Apr 28 17:56 | 2026 Apr 24 00:34:49 | 65.7757 | 0.00973 | 1.0247 | 23.0885 | 127.0393 | 13.40530 | – |
| 2026 Apr 27 17:58 | 2026 Apr 24 00:34:49 | 65.7757 | 0.00973 | 1.0247 | 23.0885 | 127.0393 | 13.40530 | – |
| 2026 Apr 26 17:58 | 2026 Apr 24 00:34:49 | 65.7757 | 0.00973 | 1.0247 | 23.0885 | 127.0393 | 13.40530 | – |
| 2026 Apr 25 17:58 | 2026 Apr 24 00:34:49 | 65.7757 | 0.00973 | 1.0247 | 23.0885 | 127.0393 | 13.40530 | – |
| 2026 Apr 24 17:59 | 2026 Apr 24 00:34:49 | 65.7757 | 0.00973 | 1.0247 | 23.0885 | 127.0393 | 13.40530 | – |
| 2026 Apr 23 17:57 | 2026 Apr 19 04:22:25 | 65.7754 | 0.00970 | 1.7781 | 25.2596 | 127.0393 | 13.40530 | – |
| 2026 Apr 22 17:57 | 2026 Apr 19 04:22:25 | 65.7754 | 0.00970 | 1.7781 | 25.2596 | 127.0393 | 13.40530 | – |
| 2026 Apr 21 17:57 | 2026 Apr 19 04:22:25 | 65.7754 | 0.00970 | 1.7781 | 25.2596 | 127.0393 | 13.40530 | – |
| 2026 Apr 20 17:57 | 2026 Apr 19 04:22:25 | 65.7754 | 0.00970 | 1.7781 | 25.2596 | 127.0393 | 13.40530 | – |
| 2026 Apr 19 17:58 | 2026 Apr 19 04:22:25 | 65.7754 | 0.00970 | 1.7781 | 25.2596 | 127.0393 | 13.40530 | – |
| 2026 Apr 18 17:56 | 2026 Apr 13 02:40:12 | 65.7747 | 0.00965 | 2.7228 | 27.9980 | 127.0393 | 13.40530 | – |
| 2026 Apr 16 17:57 | 2026 Apr 13 02:40:12 | 65.7747 | 0.00965 | 2.7228 | 27.9980 | 127.0393 | 13.40530 | – |
| 2026 Apr 14 17:57 | 2026 Apr 13 02:40:12 | 65.7747 | 0.00965 | 2.7228 | 27.9980 | 127.0393 | 13.40530 | – |
| 2026 Apr 13 17:57 | 2026 Apr 13 02:40:12 | 65.7747 | 0.00965 | 2.7228 | 27.9980 | 127.0393 | 13.40530 | – |
| 2026 Apr 12 17:57 | 2026 Apr 08 06:57:39 | 65.7739 | 0.00960 | 3.4730 | 30.1808 | 127.0393 | 13.40530 | – |
| 2026 Apr 11 17:57 | 2026 Apr 08 06:57:39 | 65.7739 | 0.00960 | 3.4730 | 30.1808 | 127.0393 | 13.40530 | – |
| 2026 Apr 10 17:58 | 2026 Apr 08 06:57:39 | 65.7739 | 0.00960 | 3.4730 | 30.1808 | 127.0393 | 13.40530 | – |
| 2026 Apr 09 18:01 | 2026 Apr 08 06:57:39 | 65.7739 | 0.00960 | 3.4730 | 30.1808 | 127.0393 | 13.40530 | – |
| 2026 Apr 08 17:57 | 2026 Apr 08 06:57:39 | 65.7739 | 0.00960 | 3.4730 | 30.1808 | 127.0393 | 13.40530 | – |
| 2026 Apr 07 17:57 | 2026 Apr 02 05:18:35 | 65.7728 | 0.00955 | 4.4174 | 32.9999 | 127.0393 | 13.40530 | – |
| 2026 Apr 06 17:57 | 2026 Apr 02 05:18:35 | 65.7728 | 0.00955 | 4.4174 | 32.9999 | 127.0393 | 13.40530 | – |